createdAt,value
2018-07-17T00:02:41.643Z,67.80
2018-07-17T00:07:36.770Z,68.60
2018-07-17T00:12:31.240Z,70.10
2018-07-17T00:17:26.489Z,69.80
2018-07-17T00:22:21.632Z,70.20
2018-07-17T00:27:16.110Z,71.00
2018-07-17T00:32:10.636Z,71.60
2018-07-17T00:37:05.198Z,71.20
2018-07-17T00:41:59.783Z,72.10
2018-07-17T00:46:54.288Z,73.10
2018-07-17T00:51:49.108Z,75.30
2018-07-17T01:06:44.430Z,77.20
2018-07-17T01:11:44.412Z,77.90
2018-07-17T01:16:39.553Z,78.10
2018-07-17T01:26:28.629Z,80.30
2018-07-17T01:31:23.518Z,82.50
2018-07-17T01:36:18.029Z,84.60
2018-07-17T01:41:12.548Z,85.80
2018-07-17T01:46:07.044Z,86.70
2018-07-17T01:51:01.577Z,86.50
2018-07-17T01:55:56.945Z,85.60
2018-07-17T02:00:51.557Z,85.00
2018-07-17T02:10:40.501Z,85.30
2018-07-17T02:15:35.152Z,85.30
2018-07-17T02:20:29.696Z,86.10
2018-07-17T02:25:24.305Z,87.00
2018-07-17T02:30:18.920Z,89.20
2018-07-17T02:40:08.427Z,88.80
2018-07-17T02:45:03.134Z,90.10
2018-07-17T02:49:57.765Z,90.80
2018-07-17T02:54:52.328Z,91.10
2018-07-17T02:59:46.895Z,91.80
2018-07-17T03:04:41.660Z,91.40
2018-07-17T03:09:36.313Z,91.70
2018-07-17T03:14:30.850Z,91.80
2018-07-17T03:19:25.576Z,91.80
2018-07-17T03:24:20.208Z,92.50
2018-07-17T03:29:14.770Z,93.30
2018-07-17T03:34:09.249Z,93.40
2018-07-17T03:39:03.894Z,94.00
2018-07-17T03:43:58.486Z,94.70
2018-07-17T03:48:53.055Z,95.40
2018-07-17T03:53:47.661Z,95.80
2018-07-17T03:58:42.184Z,96.20
2018-07-17T04:03:37.290Z,96.90
2018-07-17T04:08:32.136Z,97.00
2018-07-17T04:13:27.089Z,97.40
2018-07-17T04:18:21.988Z,96.90
2018-07-17T04:23:16.582Z,96.80
2018-07-17T04:28:11.160Z,96.90
2018-07-17T04:33:05.991Z,96.20
2018-07-17T04:38:00.506Z,96.10
2018-07-17T04:42:55.066Z,95.90
2018-07-17T04:47:49.710Z,95.30
2018-07-17T04:52:45.109Z,94.90
2018-07-17T04:57:41.456Z,94.20
2018-07-17T05:02:36.466Z,93.30
2018-07-17T05:07:31.222Z,92.60
2018-07-17T05:12:25.680Z,92.10
2018-07-17T05:17:20.575Z,91.20
2018-07-17T05:22:16.924Z,90.40
2018-07-17T05:27:13.458Z,87.50
2018-07-17T05:32:08.104Z,77.40
2018-07-17T05:37:02.754Z,67.70
2018-07-17T05:46:52.489Z,56.40
2018-07-17T05:56:42.901Z,47.60
2018-07-17T06:01:37.779Z,45.00
2018-07-17T06:06:32.760Z,42.50
2018-07-17T06:11:27.880Z,38.60
2018-07-17T06:16:22.792Z,35.30
2018-07-17T06:26:12.883Z,30.30
2018-07-17T06:31:07.809Z,28.20
2018-07-17T06:36:02.716Z,27.40
2018-07-17T06:40:57.921Z,26.60
2018-07-17T06:45:52.914Z,25.80
2018-07-17T06:50:47.874Z,26.70
2018-07-17T06:55:43.037Z,28.30
2018-07-17T07:00:37.995Z,30.90
2018-07-17T07:10:28.054Z,36.80
2018-07-17T07:15:22.824Z,39.00
2018-07-17T07:20:17.763Z,41.00
2018-07-17T07:25:12.717Z,42.50
2018-07-17T07:35:02.735Z,43.30
2018-07-17T07:39:57.577Z,42.90
2018-07-17T07:49:47.053Z,41.30
2018-07-17T07:54:41.809Z,41.70
2018-07-17T08:04:31.568Z,43.50
2018-07-17T08:09:26.377Z,43.20
2018-07-17T08:14:21.565Z,38.90
2018-07-17T08:19:16.682Z,32.10
2018-07-17T08:24:11.495Z,27.80
2018-07-17T08:29:06.553Z,24.30
2018-07-17T08:34:01.741Z,22.50
2018-07-17T08:38:56.555Z,22.20
2018-07-17T08:48:46.881Z,22.30
2018-07-17T08:53:42.004Z,20.40
2018-07-17T08:58:36.835Z,19.00
2018-07-17T09:03:31.601Z,17.60
2018-07-17T09:08:26.315Z,16.80
2018-07-17T09:13:21.067Z,16.00
2018-07-17T09:18:15.946Z,15.60
2018-07-17T09:23:11.242Z,15.70
2018-07-17T09:28:06.873Z,15.30
2018-07-17T09:33:02.053Z,14.80
2018-07-17T09:37:56.821Z,14.30
2018-07-17T09:42:51.906Z,14.30
2018-07-17T09:52:41.703Z,14.50
2018-07-17T09:57:36.442Z,14.50
2018-07-17T10:02:31.817Z,15.60
2018-07-17T10:07:27.214Z,17.90
2018-07-17T10:12:22.263Z,20.00
2018-07-17T10:17:17.346Z,21.80
2018-07-17T10:22:12.178Z,23.70
2018-07-17T10:27:08.608Z,25.40
2018-07-17T10:32:03.441Z,26.40
2018-07-17T10:36:58.551Z,27.60
2018-07-17T10:41:53.880Z,28.50
2018-07-17T10:46:48.726Z,29.20
2018-07-17T10:51:43.894Z,29.40
2018-07-17T10:56:38.876Z,29.80
2018-07-17T11:01:34.038Z,30.50
2018-07-17T11:06:28.932Z,31.90
2018-07-17T11:11:24.072Z,32.00
2018-07-17T11:21:14.523Z,32.80
2018-07-17T11:26:09.402Z,33.00
2018-07-17T11:31:04.703Z,33.30
2018-07-17T11:36:00.246Z,33.80
2018-07-17T11:40:55.250Z,34.30
2018-07-17T11:45:50.854Z,34.30
2018-07-17T11:50:45.856Z,34.10
2018-07-17T12:00:36.295Z,33.00
2018-07-17T12:10:27.591Z,33.80
2018-07-17T12:15:23.016Z,33.90
2018-07-17T12:20:17.911Z,33.70
2018-07-17T12:30:08.449Z,33.40
2018-07-17T12:39:59.097Z,34.00
2018-07-17T12:44:53.994Z,33.80
2018-07-17T12:49:48.885Z,33.60
2018-07-17T12:54:43.790Z,33.10
2018-07-17T12:59:38.551Z,32.60
2018-07-17T13:04:33.362Z,31.90
2018-07-17T13:09:28.231Z,31.50
2018-07-17T13:14:23.133Z,31.70
2018-07-17T13:19:18.741Z,31.50
2018-07-17T13:24:13.618Z,31.00
2018-07-17T13:29:08.422Z,30.70
2018-07-17T13:34:03.517Z,30.50
2018-07-17T13:38:58.414Z,30.50
2018-07-17T13:48:49.122Z,30.50
2018-07-17T13:53:44.532Z,30.50
2018-07-17T13:58:39.530Z,30.80
2018-07-17T14:03:34.956Z,31.20
2018-07-17T14:08:29.767Z,30.80
2018-07-17T14:13:24.504Z,30.80
2018-07-17T14:18:19.367Z,30.70
2018-07-17T14:28:09.110Z,30.30
2018-07-17T14:33:06.969Z,30.00
2018-07-17T14:42:56.990Z,29.10
2018-07-17T14:47:52.142Z,29.10
2018-07-17T14:52:47.221Z,29.10
2018-07-17T14:57:41.998Z,29.10
2018-07-17T15:02:37.197Z,29.00
2018-07-17T15:07:32.208Z,28.90
2018-07-17T15:17:22.558Z,29.20
2018-07-17T15:22:17.315Z,29.30
2018-07-17T15:27:12.654Z,29.40
2018-07-17T15:32:07.760Z,29.50
2018-07-17T15:37:03.170Z,29.60
2018-07-17T15:46:52.873Z,30.20
2018-07-17T15:51:47.657Z,30.70
2018-07-17T15:56:42.383Z,31.00
2018-07-17T16:11:26.570Z,33.20
2018-07-17T16:16:21.684Z,34.50
2018-07-17T16:21:16.594Z,35.90
2018-07-17T16:26:11.523Z,37.20
2018-07-17T16:31:06.671Z,38.50
2018-07-17T16:36:01.721Z,40.30
2018-07-17T16:40:56.530Z,40.70
2018-07-17T16:45:51.302Z,41.40
2018-07-17T16:50:46.756Z,43.40
2018-07-17T17:00:36.514Z,44.40
2018-07-17T17:05:31.520Z,44.70
2018-07-17T17:15:22.176Z,43.80
2018-07-17T17:20:17.208Z,45.70
2018-07-17T17:40:02.885Z,66.50
2018-07-17T17:44:59.335Z,76.50
2018-07-17T17:49:55.636Z,83.70
2018-07-17T17:54:51.501Z,89.70
2018-07-17T17:59:48.268Z,93.50
2018-07-17T18:04:42.970Z,95.00
2018-07-17T18:09:37.488Z,96.00
2018-07-17T18:14:32.742Z,96.70
2018-07-17T18:19:27.275Z,96.30
2018-07-17T18:24:21.837Z,95.20
2018-07-17T18:29:16.366Z,94.20
2018-07-17T18:34:12.589Z,93.70
2018-07-17T18:50:14.288Z,95.70
2018-07-17T18:55:10.531Z,96.00
2018-07-17T19:00:08.061Z,95.90
2018-07-17T19:05:04.961Z,95.30
2018-07-17T19:14:57.442Z,94.80
2018-07-17T19:19:51.974Z,96.10
2018-07-17T19:29:40.977Z,98.60
2018-07-17T19:34:35.909Z,99.60
2018-07-17T19:44:25.170Z,99.90
2018-07-17T19:49:19.792Z,99.90
2018-07-17T19:54:14.658Z,99.90
2018-07-17T19:59:09.189Z,99.90
2018-07-17T20:04:03.747Z,99.90
2018-07-17T20:08:58.219Z,99.90
2018-07-17T20:13:52.744Z,99.90
2018-07-17T20:18:47.392Z,99.90
2018-07-17T20:23:42.142Z,99.90
2018-07-17T20:28:36.795Z,99.90
2018-07-17T20:33:31.380Z,99.90
2018-07-17T20:38:26.034Z,99.90
2018-07-17T20:43:20.570Z,99.90
2018-07-17T20:48:15.171Z,99.90
2018-07-17T20:53:09.761Z,99.90
2018-07-17T20:58:04.260Z,99.90
2018-07-17T21:02:58.914Z,99.90
2018-07-17T21:07:53.440Z,99.90
2018-07-17T21:12:48.207Z,99.90
2018-07-17T21:17:42.850Z,99.90
2018-07-17T21:22:37.532Z,99.90
2018-07-17T21:27:32.005Z,99.90
2018-07-17T21:32:27.646Z,99.90
2018-07-17T21:37:22.333Z,99.10
2018-07-17T21:47:12.091Z,97.20
2018-07-17T21:52:06.816Z,96.90
2018-07-17T21:57:04.238Z,96.30
2018-07-17T22:01:58.877Z,97.00
2018-07-17T22:11:47.787Z,97.40
2018-07-17T22:21:36.710Z,97.40
2018-07-17T22:26:31.446Z,97.20
2018-07-17T22:31:27.094Z,97.20
2018-07-17T22:36:21.653Z,97.40
2018-07-17T22:41:16.318Z,97.10
2018-07-17T22:46:11.025Z,97.00
2018-07-17T22:51:05.714Z,97.10
2018-07-17T22:56:00.306Z,97.40
2018-07-17T23:00:54.847Z,97.60
2018-07-17T23:05:49.426Z,97.90
2018-07-17T23:10:44.080Z,98.50
2018-07-17T23:15:39.162Z,98.80
2018-07-17T23:25:31.225Z,99.90
2018-07-17T23:30:25.957Z,99.90
2018-07-17T23:35:21.732Z,99.90
2018-07-17T23:40:16.582Z,99.90
2018-07-17T23:45:11.064Z,99.90
2018-07-17T23:50:06.043Z,99.90
2018-07-17T23:55:00.762Z,99.90
2018-07-17T23:59:55.657Z,99.90
